Time;durP1;ratioP1;P1;durP2;ratioP2;P2;SDS_P1;SDS_P2;PMS_P1;PMS_P2;Temp;Humidity;BMP_temperature;BMP_pressure;BME280_temperature;BME280_humidity;BME280_pressure;Samples;Min_cycle;Max_cycle;Signal;HPM_P1;HPM_P2
2021/07/17 00:00:20;;;;;;;12.27;8.35;;;;;;;22.23;100.00;99822.47;5052493;28;20476;-84
2021/07/17 00:02:50;;;;;;;14.23;8.75;;;;;;;22.06;100.00;99812.69;5052867;28;20041;-84
2021/07/17 00:05:19;;;;;;;13.60;9.40;;;;;;;21.86;100.00;99805.97;5052573;28;20041;-84
2021/07/17 00:07:48;;;;;;;13.18;9.20;;;;;;;21.77;100.00;99796.19;5052501;28;20048;-78
2021/07/17 00:10:21;;;;;;;12.82;9.52;;;;;;;21.82;100.00;99804.66;5052036;28;20423;-77
2021/07/17 00:12:50;;;;;;;16.40;9.50;;;;;;;21.62;100.00;99807.78;5052432;28;20080;-78
2021/07/17 00:15:23;;;;;;;14.82;9.55;;;;;;;21.55;100.00;99801.34;5052052;28;20387;-78
2021/07/17 00:17:53;;;;;;;17.30;10.73;;;;;;;21.66;100.00;99787.38;5052730;28;20071;-78
2021/07/17 00:20:22;;;;;;;15.35;10.00;;;;;;;21.59;100.00;99783.69;5054643;28;20143;-78
2021/07/17 00:22:51;;;;;;;15.25;10.02;;;;;;;21.66;100.00;99779.25;5056013;28;20040;-78
2021/07/17 00:25:23;;;;;;;14.70;10.52;;;;;;;21.66;100.00;99778.41;5055677;28;20045;-79
2021/07/17 00:27:52;;;;;;;14.02;10.35;;;;;;;21.59;100.00;99789.09;5055836;28;20464;-78
2021/07/17 00:30:21;;;;;;;17.25;11.48;;;;;;;21.64;100.00;99803.00;5055202;28;20041;-78
2021/07/17 00:32:50;;;;;;;16.98;11.82;;;;;;;21.76;100.00;99795.34;5056096;28;20414;-79
2021/07/17 00:35:19;;;;;;;16.90;12.20;;;;;;;21.82;100.00;99780.22;5055519;28;20115;-79
2021/07/17 00:37:48;;;;;;;20.08;12.55;;;;;;;21.86;100.00;99759.84;5055717;28;20045;-79
2021/07/17 00:40:20;;;;;;;16.80;11.73;;;;;;;21.99;100.00;99770.97;5055638;28;20036;-75
2021/07/17 00:42:49;;;;;;;14.43;11.05;;;;;;;21.77;100.00;99774.47;5055647;28;20136;-75
2021/07/17 00:45:18;;;;;;;16.02;11.77;;;;;;;21.67;100.00;99767.38;5055220;28;20049;-82
2021/07/17 00:47:47;;;;;;;14.35;10.73;;;;;;;21.65;100.00;99758.56;5055489;28;20040;-75
2021/07/17 00:50:18;;;;;;;18.30;11.00;;;;;;;21.64;100.00;99743.31;5055435;28;20037;-75
2021/07/17 00:52:48;;;;;;;14.55;9.38;;;;;;;21.63;100.00;99729.91;5055409;28;20044;-74
2021/07/17 00:55:19;;;;;;;16.92;9.90;;;;;;;21.60;100.00;99714.81;5055707;28;20099;-74
2021/07/17 00:57:50;;;;;;;15.52;10.50;;;;;;;21.58;100.00;99711.44;5055161;28;20472;-76
2021/07/17 01:00:19;;;;;;;15.38;9.50;;;;;;;21.60;100.00;99706.66;5055205;28;20099;-83
2021/07/17 01:02:55;;;;;;;11.90;8.88;;;;;;;21.54;100.00;99707.38;5055269;28;20068;-75
2021/07/17 01:05:24;;;;;;;14.20;9.27;;;;;;;21.53;100.00;99703.00;5054764;28;20089;-77
2021/07/17 01:07:54;;;;;;;14.32;8.90;;;;;;;21.53;100.00;99692.13;5055061;28;20063;-77
2021/07/17 01:10:22;;;;;;;13.40;9.35;;;;;;;21.81;100.00;99683.50;5054644;28;20482;-77
2021/07/17 01:12:51;;;;;;;13.07;8.90;;;;;;;21.69;100.00;99675.75;5055045;28;20048;-76
2021/07/17 01:15:20;;;;;;;15.00;9.13;;;;;;;21.49;100.00;99698.91;5054976;28;20033;-83
2021/07/17 01:17:48;;;;;;;14.10;9.73;;;;;;;21.28;100.00;99710.34;5054995;28;20076;-77
2021/07/17 01:20:19;;;;;;;14.23;10.25;;;;;;;21.19;100.00;99694.25;5054874;28;20393;-77
2021/07/17 01:22:52;;;;;;;13.02;9.05;;;;;;;21.07;100.00;99680.22;5055112;28;20045;-76
2021/07/17 01:25:22;;;;;;;12.88;8.50;;;;;;;21.20;100.00;99679.66;5053915;28;20075;-84
2021/07/17 01:27:51;;;;;;;12.90;7.97;;;;;;;21.21;100.00;99703.91;5054560;28;20045;-75
2021/07/17 01:30:21;;;;;;;13.35;8.50;;;;;;;20.43;100.00;99718.03;5054815;28;20056;-75
2021/07/17 01:32:50;;;;;;;14.13;8.35;;;;;;;20.38;100.00;99706.84;5054560;28;20075;-76
2021/07/17 01:35:19;;;;;;;15.95;8.85;;;;;;;20.39;100.00;99740.19;5054468;28;20041;-76
2021/07/17 01:37:47;;;;;;;12.65;7.93;;;;;;;20.30;100.00;99752.88;5054764;28;20052;-75
2021/07/17 01:40:21;;;;;;;13.73;7.82;;;;;;;20.14;100.00;99744.72;5054398;28;20462;-76
2021/07/17 01:42:51;;;;;;;13.55;7.68;;;;;;;20.01;100.00;99770.41;5054520;28;20045;-75
2021/07/17 01:45:26;;;;;;;10.85;7.78;;;;;;;20.10;100.00;99783.97;5054341;28;20049;-76
2021/07/17 01:47:55;;;;;;;12.30;8.80;;;;;;;20.04;100.00;99752.13;5054535;28;20033;-75
2021/07/17 01:50:31;;;;;;;10.13;7.22;;;;;;;20.09;100.00;99723.56;5054051;28;20041;-75
2021/07/17 01:53:00;;;;;;;9.70;6.25;;;;;;;20.17;100.00;99720.00;5054234;28;20051;-75
2021/07/17 01:55:30;;;;;;;8.93;6.50;;;;;;;20.29;100.00;99713.28;5053878;28;20048;-75
2021/07/17 01:57:59;;;;;;;8.05;5.60;;;;;;;20.33;100.00;99744.41;5054022;28;20063;-75
2021/07/17 02:00:29;;;;;;;10.82;5.40;;;;;;;20.37;100.00;99747.66;5053926;28;20045;-75
2021/07/17 02:02:58;;;;;;;10.55;6.25;;;;;;;20.28;100.00;99754.91;5054122;28;20463;-75
2021/07/17 02:05:27;;;;;;;9.55;6.57;;;;;;;20.38;100.00;99809.78;5053673;28;20040;-75
2021/07/17 02:07:56;;;;;;;13.30;6.63;;;;;;;20.57;100.00;99852.00;5054144;28;20545;-78
2021/07/17 02:10:27;;;;;;;15.98;7.70;;;;;;;20.56;100.00;99840.31;5053386;28;20048;-90
2021/07/17 02:13:03;;;;;;;21.95;8.73;;;;;;;20.46;100.00;99834.22;5054146;28;20037;-87
2021/07/17 02:15:34;;;;;;;15.13;7.65;;;;;;;20.39;100.00;99835.84;5053773;28;20048;-85
2021/07/17 02:18:04;;;;;;;12.45;6.60;;;;;;;20.38;100.00;99817.91;5053926;28;20140;-85
2021/07/17 02:20:32;;;;;;;10.65;6.65;;;;;;;20.42;100.00;99819.25;5053355;28;20535;-84
2021/07/17 02:23:01;;;;;;;12.35;7.03;;;;;;;20.40;100.00;99810.44;5053433;28;20056;-85
2021/07/17 02:25:29;;;;;;;14.18;7.00;;;;;;;20.34;100.00;99802.97;5053457;28;20045;-84
2021/07/17 02:27:57;;;;;;;12.75;7.05;;;;;;;20.43;100.00;99812.84;5053573;28;20098;-86
2021/07/17 02:30:28;;;;;;;9.55;6.43;;;;;;;20.39;100.00;99816.03;5053038;28;20125;-84
2021/07/17 02:32:56;;;;;;;10.93;6.80;;;;;;;20.41;100.00;99820.28;5053369;28;20492;-86
2021/07/17 02:35:24;;;;;;;10.05;6.05;;;;;;;20.52;100.00;99816.44;5052375;28;20466;-83
2021/07/17 02:37:53;;;;;;;10.55;6.80;;;;;;;20.54;100.00;99803.56;5053217;28;20045;-84
2021/07/17 02:40:21;;;;;;;11.27;6.85;;;;;;;20.43;100.00;99788.47;5052532;28;20049;-84
2021/07/17 02:42:50;;;;;;;11.95;7.10;;;;;;;20.41;100.00;99774.22;5053159;28;20045;-84
2021/07/17 02:45:19;;;;;;;12.20;6.78;;;;;;;20.38;100.00;99774.56;5053017;28;20045;-83
2021/07/17 02:47:49;;;;;;;10.23;6.63;;;;;;;20.32;100.00;99772.50;5052877;28;20423;-82
2021/07/17 02:50:18;;;;;;;12.27;7.07;;;;;;;20.40;100.00;99777.94;5052967;28;20170;-82
2021/07/17 02:52:46;;;;;;;11.68;6.97;;;;;;;20.46;100.00;99777.31;5051717;28;20049;-81
2021/07/17 02:55:16;;;;;;;10.48;6.72;;;;;;;20.58;100.00;99773.25;5052986;28;20450;-87
2021/07/17 02:57:45;;;;;;;8.50;6.10;;;;;;;20.73;100.00;99769.88;5052701;28;20041;-75
2021/07/17 03:00:14;;;;;;;11.85;7.15;;;;;;;20.72;100.00;99754.63;5052896;28;20099;-75
2021/07/17 03:02:43;;;;;;;11.20;6.45;;;;;;;20.75;100.00;99730.75;5052749;28;20502;-75
2021/07/17 03:05:13;;;;;;;9.18;6.70;;;;;;;20.61;100.00;99730.59;5052783;28;20094;-75
2021/07/17 03:07:42;;;;;;;10.20;7.05;;;;;;;20.48;100.00;99707.56;5052622;28;20041;-75
2021/07/17 03:10:11;;;;;;;12.40;7.00;;;;;;;20.37;100.00;99704.31;5052904;28;20495;-74
2021/07/17 03:12:39;;;;;;;11.10;7.22;;;;;;;20.24;100.00;99711.06;5052382;28;20076;-76
2021/07/17 03:15:09;;;;;;;11.02;6.95;;;;;;;20.31;100.00;99686.88;5052695;28;20429;-75
2021/07/17 03:17:38;;;;;;;10.48;6.20;;;;;;;20.30;100.00;99682.47;5052331;28;20053;-76
2021/07/17 03:20:07;;;;;;;12.02;7.13;;;;;;;20.40;100.00;99688.56;5052825;28;20041;-76
2021/07/17 03:22:37;;;;;;;10.35;6.50;;;;;;;20.37;100.00;99698.91;5052472;28;20033;-75
2021/07/17 03:25:20;;;;;;;12.20;6.65;;;;;;;20.28;100.00;99706.16;5052636;28;20079;-89
2021/07/17 03:28:47;;;;;;;10.13;6.63;;;;;;;20.35;100.00;99699.03;5052687;28;20186;-91
2021/07/17 03:34:32;;;;;;;13.30;6.35;;;;;;;20.69;100.00;99701.63;5052939;28;20099;-89
2021/07/17 03:37:29;;;;;;;9.85;6.03;;;;;;;20.60;100.00;99693.66;5051586;28;20049;-90
2021/07/17 03:40:47;;;;;;;10.18;6.63;;;;;;;20.62;100.00;99681.63;5052676;28;20466;-91
2021/07/17 03:43:16;;;;;;;10.50;6.47;;;;;;;20.73;100.00;99694.00;5034458;28;20526;-82
2021/07/17 03:45:45;;;;;;;10.10;6.22;;;;;;;20.57;100.00;99687.59;5052383;28;20387;-82
2021/07/17 03:48:16;;;;;;;10.13;6.57;;;;;;;20.38;100.00;99690.59;5052481;28;20049;-88
2021/07/17 03:50:45;;;;;;;9.15;6.10;;;;;;;20.49;100.00;99678.59;5052409;28;20407;-89
2021/07/17 03:53:18;;;;;;;10.70;6.40;;;;;;;20.22;100.00;99691.41;5056701;28;20049;-88
2021/07/17 03:55:51;;;;;;;10.75;6.80;;;;;;;20.46;100.00;99698.75;5056104;28;20139;-88
2021/07/17 03:58:22;;;;;;;10.43;6.80;;;;;;;20.49;100.00;99706.53;5056303;28;20120;-87
2021/07/17 04:00:56;;;;;;;11.88;7.10;;;;;;;20.47;100.00;99711.28;5055894;28;20041;-89
2021/07/17 04:03:58;;;;;;;10.35;6.78;;;;;;;20.49;100.00;99730.94;5056080;28;20037;-85
2021/07/17 04:06:32;;;;;;;11.38;6.80;;;;;;;20.60;100.00;99739.72;5054284;28;20057;-88
2021/07/17 04:09:06;;;;;;;9.70;7.30;;;;;;;20.35;100.00;99745.09;5056144;28;20071;-87
2021/07/17 04:11:37;;;;;;;12.55;7.40;;;;;;;20.52;100.00;99756.81;5038741;28;20049;-90
2021/07/17 04:14:07;;;;;;;10.95;7.13;;;;;;;20.41;100.00;99766.09;5056210;28;20041;-79
2021/07/17 04:16:36;;;;;;;11.27;6.85;;;;;;;20.29;100.00;99771.00;5055983;28;20044;-81
2021/07/17 04:19:05;;;;;;;12.70;7.60;;;;;;;20.27;100.00;99785.72;5056049;28;20064;-79
2021/07/17 04:21:33;;;;;;;9.73;7.07;;;;;;;20.20;100.00;99785.53;5054427;28;20048;-82
2021/07/17 04:24:01;;;;;;;12.05;7.03;;;;;;;20.31;100.00;99787.06;5056077;28;20048;-81
2021/07/17 04:26:30;;;;;;;14.38;7.25;;;;;;;20.24;100.00;99791.44;5055700;28;20076;-81
2021/07/17 04:29:00;;;;;;;10.27;7.40;;;;;;;20.28;100.00;99790.13;5056201;28;20045;-80
2021/07/17 04:31:28;;;;;;;10.50;7.15;;;;;;;20.36;100.00;99800.94;5055645;28;20446;-82
2021/07/17 04:33:56;;;;;;;12.48;7.47;;;;;;;20.38;100.00;99788.09;5055346;28;20047;-81
2021/07/17 04:36:25;;;;;;;13.18;6.95;;;;;;;20.26;100.00;99770.44;5055486;28;20095;-81
2021/07/17 04:38:53;;;;;;;12.80;7.68;;;;;;;20.27;100.00;99774.88;5055292;28;20067;-83
2021/07/17 04:41:21;;;;;;;11.05;7.43;;;;;;;20.32;100.00;99777.94;5055535;28;20049;-82
2021/07/17 04:43:50;;;;;;;12.65;7.55;;;;;;;20.39;100.00;99776.25;5055083;28;20053;-81
2021/07/17 04:46:19;;;;;;;11.18;6.85;;;;;;;20.43;100.00;99772.22;5054307;28;20045;-81
2021/07/17 04:48:48;;;;;;;9.85;6.65;;;;;;;20.28;100.00;99769.28;5055204;28;20048;-82
2021/07/17 04:51:17;;;;;;;10.38;6.85;;;;;;;20.26;100.00;99757.75;5055421;28;20048;-80
2021/07/17 04:53:45;;;;;;;12.48;7.32;;;;;;;20.35;100.00;99745.09;5054967;28;20052;-81
2021/07/17 04:56:13;;;;;;;12.88;7.35;;;;;;;20.42;100.00;99750.69;5055256;28;20099;-82
2021/07/17 04:58:42;;;;;;;11.95;7.88;;;;;;;20.50;100.00;99751.56;5054971;28;20041;-82
2021/07/17 05:01:10;;;;;;;13.73;7.55;;;;;;;20.51;100.00;99745.13;5055028;28;20099;-82
2021/07/17 05:03:40;;;;;;;10.15;7.38;;;;;;;20.55;100.00;99751.91;5053918;28;20041;-82
2021/07/17 05:06:08;;;;;;;10.80;7.93;;;;;;;20.36;100.00;99756.75;5055037;28;20049;-82
2021/07/17 05:08:37;;;;;;;12.70;7.95;;;;;;;20.40;100.00;99758.13;5054798;28;20045;-83
2021/07/17 05:11:07;;;;;;;13.32;7.85;;;;;;;20.42;100.00;99762.38;5054866;28;20048;-84
2021/07/17 05:13:47;;;;;;;10.57;7.78;;;;;;;20.51;100.00;99761.41;5054313;28;20044;-84
2021/07/17 05:16:24;;;;;;;11.23;7.68;;;;;;;20.56;100.00;99758.19;5055082;28;20106;-84
2021/07/17 05:18:57;;;;;;;11.93;7.53;;;;;;;20.63;100.00;99753.78;5054673;28;20076;-78
2021/07/17 05:21:25;;;;;;;11.95;7.75;;;;;;;20.69;100.00;99754.97;5053692;28;20060;-76
2021/07/17 05:23:53;;;;;;;14.23;7.90;;;;;;;20.79;100.00;99756.50;5054335;28;20071;-79
2021/07/17 05:26:21;;;;;;;10.98;7.15;;;;;;;20.93;100.00;99743.25;5054809;28;20049;-77
2021/07/17 05:28:49;;;;;;;10.48;7.38;;;;;;;20.95;100.00;99747.53;5054542;28;20041;-80
2021/07/17 05:31:19;;;;;;;12.15;7.70;;;;;;;21.04;100.00;99742.94;5054752;28;20049;-80
2021/07/17 05:33:47;;;;;;;14.00;7.50;;;;;;;20.99;100.00;99748.84;5054254;28;20056;-79
2021/07/17 05:36:17;;;;;;;10.88;7.78;;;;;;;21.15;100.00;99751.56;5054562;28;20049;-79
2021/07/17 05:38:45;;;;;;;12.05;7.57;;;;;;;21.27;100.00;99752.06;5054057;28;20052;-78
2021/07/17 05:41:13;;;;;;;13.77;7.93;;;;;;;21.36;100.00;99758.31;5054172;28;20488;-79
2021/07/17 05:43:42;;;;;;;10.52;7.50;;;;;;;21.50;100.00;99752.16;5054073;28;20483;-78
2021/07/17 05:46:10;;;;;;;13.20;6.70;;;;;;;21.34;100.00;99746.81;5054292;28;20099;-79
2021/07/17 05:48:38;;;;;;;9.00;6.10;;;;;;;21.25;100.00;99732.38;5054003;28;20041;-79
2021/07/17 05:51:07;;;;;;;11.05;6.60;;;;;;;21.43;100.00;99734.91;5054154;28;20095;-78
2021/07/17 05:53:38;;;;;;;11.20;6.88;;;;;;;22.34;100.00;99738.88;5053822;28;20091;-79
2021/07/17 05:56:06;;;;;;;9.73;6.05;;;;;;;23.26;93.83;99754.09;5053909;28;20041;-78
2021/07/17 05:58:35;;;;;;;10.50;6.47;;;;;;;23.55;93.71;99756.00;5054024;28;20099;-76
2021/07/17 06:01:05;;;;;;;10.98;6.05;;;;;;;22.94;94.22;99746.25;5053705;28;20056;-75
2021/07/17 06:03:34;;;;;;;9.48;6.30;;;;;;;22.95;96.31;99742.50;5053959;28;20071;-76
2021/07/17 06:06:03;;;;;;;11.23;6.55;;;;;;;22.87;97.33;99743.41;5053501;28;20040;-78
2021/07/17 06:08:31;;;;;;;13.60;6.82;;;;;;;23.63;92.23;99738.72;5054150;28;20045;-75
2021/07/17 06:11:01;;;;;;;10.57;6.43;;;;;;;24.53;87.49;99738.34;5053654;28;20168;-79
2021/07/17 06:13:29;;;;;;;10.30;6.40;;;;;;;23.63;90.69;99741.44;5054042;28;20064;-75
2021/07/17 06:16:01;;;;;;;11.75;6.60;;;;;;;23.82;91.31;99746.31;5053193;28;20057;-76
2021/07/17 06:18:30;;;;;;;10.10;6.38;;;;;;;24.04;88.50;99751.84;5053851;28;20136;-74
2021/07/17 06:20:59;;;;;;;10.82;6.40;;;;;;;24.50;85.65;99749.63;5053441;28;20048;-74
2021/07/17 06:23:27;;;;;;;13.20;7.05;;;;;;;23.84;87.92;99752.44;5053538;28;20479;-75
2021/07/17 06:25:57;;;;;;;10.63;7.28;;;;;;;23.46;92.66;99748.09;5053165;28;20095;-76
2021/07/17 06:28:28;;;;;;;13.30;7.22;;;;;;;23.17;94.28;99748.94;5052461;28;20079;-85
2021/07/17 06:30:56;;;;;;;14.20;7.10;;;;;;;22.96;94.26;99749.63;5053323;28;20480;-77
2021/07/17 06:33:25;;;;;;;13.70;7.82;;;;;;;22.82;97.08;99754.81;5053383;28;20412;-78
2021/07/17 06:35:53;;;;;;;12.02;7.35;;;;;;;22.76;97.26;99755.53;5053173;28;20106;-76
2021/07/17 06:38:21;;;;;;;9.82;7.72;;;;;;;22.87;97.66;99757.00;5053272;28;20476;-83
2021/07/17 06:40:50;;;;;;;12.25;7.63;;;;;;;23.17;94.65;99763.38;5052897;28;20049;-78
2021/07/17 06:43:18;;;;;;;12.07;7.35;;;;;;;23.62;92.67;99756.09;5053102;28;20047;-78
2021/07/17 06:45:47;;;;;;;10.52;7.20;;;;;;;23.91;90.32;99764.22;5052903;28;20045;-80
2021/07/17 06:48:16;;;;;;;10.52;7.78;;;;;;;24.28;88.69;99763.22;5053164;28;20041;-83
2021/07/17 06:50:44;;;;;;;10.93;6.93;;;;;;;24.37;88.96;99766.69;5059513;28;20478;-83
2021/07/17 06:53:12;;;;;;;11.93;7.20;;;;;;;24.46;87.08;99760.09;5052923;28;20041;-77
2021/07/17 06:55:41;;;;;;;10.43;6.60;;;;;;;24.22;86.93;99769.44;5052860;28;20036;-84
2021/07/17 06:58:10;;;;;;;9.68;6.63;;;;;;;23.90;88.70;99770.72;5053403;28;20067;-80
2021/07/17 07:00:38;;;;;;;11.93;7.55;;;;;;;23.61;91.87;99765.28;5053223;28;20048;-82
2021/07/17 07:03:09;;;;;;;10.85;7.45;;;;;;;23.82;91.10;99762.66;5051485;28;20060;-80
2021/07/17 07:05:38;;;;;;;11.63;6.85;;;;;;;24.16;89.30;99762.03;5053033;28;20041;-78
2021/07/17 07:08:06;;;;;;;11.57;7.03;;;;;;;23.76;89.96;99774.31;5052427;28;20403;-87
2021/07/17 07:10:35;;;;;;;9.43;6.63;;;;;;;23.91;89.18;99766.13;5052725;28;20403;-77
2021/07/17 07:13:09;;;;;;;13.13;7.70;;;;;;;23.89;90.60;99774.47;5052876;28;20044;-87
2021/07/17 07:15:38;;;;;;;11.80;7.60;;;;;;;23.93;89.89;99778.53;5053042;28;20139;-88
2021/07/17 07:18:07;;;;;;;10.55;7.05;;;;;;;23.89;91.70;99782.66;5052990;28;20428;-80
2021/07/17 07:20:36;;;;;;;11.15;7.57;;;;;;;23.95;91.84;99776.44;5052903;28;20045;-81
2021/07/17 07:23:05;;;;;;;12.50;7.22;;;;;;;23.96;90.42;99769.97;5051423;28;20155;-84
2021/07/17 07:25:33;;;;;;;12.13;7.95;;;;;;;23.98;91.39;99776.06;5052520;28;20044;-78
2021/07/17 07:28:02;;;;;;;12.32;7.65;;;;;;;24.28;90.06;99774.13;5051129;28;20055;-81
2021/07/17 07:30:30;;;;;;;14.68;7.88;;;;;;;24.18;91.24;99773.56;5052692;28;20541;-80
2021/07/17 07:33:00;;;;;;;15.77;8.20;;;;;;;24.27;92.00;99766.13;5052242;28;20549;-76
2021/07/17 07:35:28;;;;;;;13.02;8.45;;;;;;;24.60;89.04;99773.84;5052435;28;20148;-73
2021/07/17 07:37:58;;;;;;;12.43;8.25;;;;;;;24.68;89.18;99773.72;5052853;28;20507;-75
2021/07/17 07:40:29;;;;;;;13.75;8.63;;;;;;;24.87;89.34;99773.06;5052641;28;20044;-75
2021/07/17 07:42:58;;;;;;;11.13;8.02;;;;;;;24.97;87.73;99773.56;5052262;28;20045;-75
2021/07/17 07:45:27;;;;;;;11.13;7.97;;;;;;;25.15;86.20;99766.81;5052448;28;20049;-75
2021/07/17 07:47:56;;;;;;;14.18;8.98;;;;;;;25.42;84.49;99776.91;5052011;28;20051;-74
2021/07/17 07:50:25;;;;;;;13.02;8.45;;;;;;;25.40;83.89;99776.25;5052515;28;20045;-76
2021/07/17 07:52:53;;;;;;;13.00;9.60;;;;;;;25.42;84.39;99776.06;5052308;28;20124;-76
2021/07/17 07:55:23;;;;;;;13.45;8.75;;;;;;;25.40;86.59;99776.25;5052814;28;20073;-75
2021/07/17 07:57:51;;;;;;;14.75;9.38;;;;;;;25.57;85.19;99785.78;5052162;28;20387;-77
2021/07/17 08:00:20;;;;;;;15.25;9.75;;;;;;;25.66;83.51;99790.06;5051398;28;20446;-74
2021/07/17 08:02:55;;;;;;;14.20;9.93;;;;;;;25.45;83.66;99792.88;5052234;28;20045;-76
2021/07/17 08:05:25;;;;;;;13.35;9.75;;;;;;;25.64;84.08;99791.31;5052327;28;20407;-79
2021/07/17 08:07:54;;;;;;;13.63;9.50;;;;;;;25.59;83.55;99788.34;5052145;28;20388;-76
2021/07/17 08:10:25;;;;;;;13.30;9.32;;;;;;;25.74;81.60;99790.97;5052241;28;20045;-77
2021/07/17 08:12:53;;;;;;;14.35;9.88;;;;;;;25.32;84.69;99785.44;5052241;28;20503;-78
2021/07/17 08:15:22;;;;;;;13.23;9.57;;;;;;;24.87;86.86;99778.53;5052162;28;20045;-77
2021/07/17 08:17:50;;;;;;;20.20;10.93;;;;;;;25.37;84.74;99773.91;5052146;28;20053;-74
2021/07/17 08:20:19;;;;;;;14.27;9.73;;;;;;;25.39;84.63;99782.75;5052510;28;20037;-78
2021/07/17 08:22:47;;;;;;;15.75;10.35;;;;;;;25.22;85.83;99776.75;5052205;28;20044;-77
2021/07/17 08:25:16;;;;;;;14.05;9.32;;;;;;;25.56;83.55;99783.28;5051834;28;20037;-75
2021/07/17 08:27:46;;;;;;;14.35;9.70;;;;;;;25.63;84.53;99784.16;5052446;28;20052;-79
2021/07/17 08:30:15;;;;;;;15.80;10.40;;;;;;;25.27;84.61;99774.25;5051866;28;20380;-74
2021/07/17 08:32:56;;;;;;;15.32;10.10;;;;;;;25.32;84.33;99781.88;5052287;28;20053;-81
2021/07/17 08:35:25;;;;;;;16.45;10.32;;;;;;;25.51;82.76;99781.16;5051907;28;20044;-78
2021/07/17 08:37:53;;;;;;;13.00;9.75;;;;;;;25.39;83.35;99782.75;5052236;28;20049;-73
2021/07/17 08:40:22;;;;;;;12.90;10.43;;;;;;;25.17;84.26;99770.19;5055337;28;20083;-76
2021/07/17 08:42:55;;;;;;;19.48;11.25;;;;;;;25.26;84.27;99761.66;5055481;28;20048;-73
2021/07/17 08:45:25;;;;;;;18.83;11.10;;;;;;;25.19;85.09;99759.91;5055347;28;20102;-73
2021/07/17 08:47:57;;;;;;;15.32;10.07;;;;;;;25.23;86.23;99762.06;5055673;28;20041;-73
2021/07/17 08:50:27;;;;;;;14.88;10.65;;;;;;;25.35;85.74;99776.84;5055030;28;20095;-73
2021/07/17 08:52:58;;;;;;;16.17;11.73;;;;;;;25.48;84.80;99759.72;5054202;28;20045;-78
2021/07/17 08:55:29;;;;;;;16.02;10.80;;;;;;;25.32;85.49;99736.31;5055716;28;20049;-70
2021/07/17 08:58:00;;;;;;;15.57;10.82;;;;;;;25.45;84.67;99760.09;5055278;28;20048;-72
2021/07/17 09:00:31;;;;;;;14.70;10.23;;;;;;;25.51;85.36;99763.94;5055127;28;20123;-71
2021/07/17 09:03:04;;;;;;;15.40;10.50;;;;;;;25.62;82.71;99756.00;5055030;28;20068;-70
2021/07/17 09:05:42;;;;;;;14.93;10.60;;;;;;;25.72;83.30;99752.09;5055189;28;20048;-70
2021/07/17 09:08:12;;;;;;;17.70;10.57;;;;;;;25.49;84.81;99755.94;5054708;28;20286;-70
2021/07/17 09:10:42;;;;;;;15.90;11.38;;;;;;;25.70;83.60;99768.69;5055104;28;20045;-70
2021/07/17 09:13:19;;;;;;;16.23;10.63;;;;;;;25.82;84.54;99771.69;5055002;28;20052;-70
2021/07/17 09:16:02;;;;;;;14.90;11.13;;;;;;;26.07;82.70;99770.13;5054961;28;20076;-70
2021/07/17 09:18:34;;;;;;;16.20;10.63;;;;;;;26.00;81.20;99769.25;5054719;28;20059;-70
2021/07/17 09:21:06;;;;;;;15.55;11.13;;;;;;;25.96;82.89;99767.97;5055109;28;20036;-70
2021/07/17 09:23:37;;;;;;;15.40;10.37;;;;;;;26.01;82.59;99764.63;5054923;28;20052;-71
2021/07/17 09:26:17;;;;;;;17.13;11.05;;;;;;;25.74;82.02;99769.97;5054851;28;20045;-70
2021/07/17 09:28:56;;;;;;;15.75;11.52;;;;;;;25.98;82.79;99779.56;5055010;28;20056;-70
2021/07/17 09:31:27;;;;;;;13.85;10.75;;;;;;;26.11;81.43;99793.25;5054601;28;20052;-70
2021/07/17 09:34:03;;;;;;;18.58;11.10;;;;;;;26.18;80.66;99785.94;5054579;28;20411;-70
2021/07/17 09:36:32;;;;;;;18.98;11.52;;;;;;;26.21;81.94;99782.78;5054658;28;20135;-70
2021/07/17 09:39:01;;;;;;;15.57;11.60;;;;;;;26.29;80.47;99772.72;5054753;28;20037;-70
2021/07/17 09:41:30;;;;;;;16.02;11.57;;;;;;;26.27;79.59;99775.69;5054454;28;20040;-70
2021/07/17 09:44:02;;;;;;;17.75;11.55;;;;;;;26.47;78.53;99770.28;5054387;28;20048;-70
2021/07/17 09:46:32;;;;;;;15.75;11.57;;;;;;;26.31;79.63;99770.63;5053979;28;20045;-71
2021/07/17 09:49:03;;;;;;;16.42;10.65;;;;;;;26.42;79.90;99768.16;5053978;28;20487;-71
2021/07/17 09:51:34;;;;;;;17.52;11.85;;;;;;;26.61;79.31;99765.69;5054278;28;20037;-71
2021/07/17 09:54:03;;;;;;;17.08;11.63;;;;;;;26.76;77.51;99756.25;5054455;28;20037;-70
2021/07/17 09:56:35;;;;;;;17.67;12.02;;;;;;;26.51;79.67;99758.72;5053924;28;20069;-70
2021/07/17 09:59:07;;;;;;;17.90;11.50;;;;;;;26.87;77.90;99754.78;5054295;28;20069;-70
2021/07/17 10:01:38;;;;;;;19.90;11.35;;;;;;;26.87;76.48;99752.03;5054172;28;20499;-71
2021/07/17 10:04:09;;;;;;;17.02;11.63;;;;;;;26.87;76.38;99754.78;5054351;28;20120;-70
2021/07/17 10:06:44;;;;;;;17.27;11.60;;;;;;;26.91;75.97;99749.72;5054286;28;20041;-71
2021/07/17 10:09:25;;;;;;;17.60;11.50;;;;;;;26.90;78.16;99751.59;5053924;28;20140;-71
2021/07/17 10:11:56;;;;;;;14.25;11.05;;;;;;;26.84;76.77;99749.72;5053615;28;20040;-71
2021/07/17 10:14:29;;;;;;;22.23;12.02;;;;;;;27.06;75.22;99740.28;5053438;28;20044;-70
2021/07/17 10:16:59;;;;;;;17.48;11.27;;;;;;;27.09;75.31;99733.53;5053783;28;20102;-70
2021/07/17 10:19:29;;;;;;;18.35;11.25;;;;;;;27.20;74.75;99726.56;5053165;28;20041;-69
2021/07/17 10:21:59;;;;;;;17.17;12.00;;;;;;;27.28;73.70;99738.13;5054070;28;20463;-69
2021/07/17 10:24:29;;;;;;;16.27;11.40;;;;;;;27.29;72.83;99745.28;5053681;28;20041;-71
2021/07/17 10:26:58;;;;;;;17.02;12.10;;;;;;;27.24;74.90;99744.25;5053540;28;20045;-69
2021/07/17 10:29:29;;;;;;;17.45;11.13;;;;;;;27.41;74.24;99744.63;5053363;28;20480;-70
2021/07/17 10:32:00;;;;;;;16.27;11.77;;;;;;;27.57;73.81;99755.16;5053680;28;20048;-69
2021/07/17 10:34:30;;;;;;;20.20;12.25;;;;;;;27.55;74.51;99760.00;5053231;28;20399;-70
2021/07/17 10:37:03;;;;;;;19.30;12.30;;;;;;;27.58;73.06;99756.81;5053628;28;20052;-70
2021/07/17 10:39:33;;;;;;;16.45;11.38;;;;;;;27.54;72.47;99763.81;5053450;28;20044;-69
2021/07/17 10:42:12;;;;;;;16.92;11.13;;;;;;;27.50;73.52;99765.25;5053330;28;20510;-70
2021/07/17 10:44:45;;;;;;;18.42;11.77;;;;;;;27.64;74.05;99766.94;5053437;28;20051;-73
2021/07/17 10:47:14;;;;;;;17.63;11.77;;;;;;;27.83;70.82;99771.53;5052886;28;20041;-75
2021/07/17 10:49:45;;;;;;;15.95;11.57;;;;;;;28.09;72.66;99769.78;5042969;28;20050;-77
2021/07/17 10:52:33;;;;;;;18.70;11.68;;;;;;;28.09;72.46;99761.56;5052194;28;20040;-73
2021/07/17 10:55:26;;;;;;;19.25;11.82;;;;;;;28.30;72.25;99755.78;5053087;28;20480;-71
2021/07/17 10:57:56;;;;;;;18.83;11.52;;;;;;;27.89;71.72;99748.78;5052998;28;20041;-72
2021/07/17 11:00:48;;;;;;;18.58;11.20;;;;;;;28.12;70.10;99744.66;5052559;28;20458;-71
2021/07/17 11:03:18;;;;;;;18.33;11.75;;;;;;;28.11;70.17;99740.22;5053181;28;20045;-71
2021/07/17 11:05:48;;;;;;;17.50;11.95;;;;;;;27.89;70.78;99737.81;5052024;28;20060;-70
2021/07/17 11:08:31;;;;;;;17.40;11.90;;;;;;;27.90;71.00;99738.66;5052919;28;20045;-71
2021/07/17 11:10:59;;;;;;;15.05;11.27;;;;;;;27.91;71.25;99745.81;5052659;28;20052;-71
2021/07/17 11:13:33;;;;;;;16.48;11.75;;;;;;;28.02;70.55;99745.13;5051637;28;20052;-72
2021/07/17 11:16:04;;;;;;;18.83;12.18;;;;;;;28.00;71.20;99740.94;5051638;28;20127;-72
2021/07/17 11:18:41;;;;;;;15.07;11.55;;;;;;;28.18;69.70;99750.13;5052720;28;20048;-71
2021/07/17 11:21:21;;;;;;;14.07;11.13;;;;;;;28.20;69.01;99738.94;5052499;28;20128;-71
2021/07/17 11:23:50;;;;;;;15.55;11.23;;;;;;;28.18;69.77;99743.75;5052813;28;20052;-72
2021/07/17 11:26:23;;;;;;;15.32;10.80;;;;;;;27.93;70.14;99739.03;5052659;28;20471;-71
2021/07/17 11:29:08;;;;;;;17.55;11.30;;;;;;;28.33;69.40;99735.28;5052596;28;20476;-71
2021/07/17 11:31:56;;;;;;;17.98;11.95;;;;;;;28.43;69.96;99744.72;5052731;28;20045;-72
2021/07/17 11:34:40;;;;;;;14.98;11.43;;;;;;;28.33;69.27;99741.63;5052780;28;20499;-70
2021/07/17 11:37:10;;;;;;;16.15;10.65;;;;;;;28.34;69.17;99735.06;5052484;28;20044;-74
2021/07/17 11:39:42;;;;;;;14.82;11.13;;;;;;;28.44;68.75;99724.44;5052400;28;20065;-73